sensor_id;sensor_type;location;lat;lon;timestamp;pressure;altitude;pressure_sealevel;temperature;humidity
13312;BME280;34033;48.672;9.376;2022-09-19T00:00:37;98529.28;;;10.91;83.06
13312;BME280;34033;48.672;9.376;2022-09-19T00:03:02;98528.13;;;11.03;83.82
13312;BME280;34033;48.672;9.376;2022-09-19T00:05:28;98557.31;;;11.02;83.60
13312;BME280;34033;48.672;9.376;2022-09-19T00:07:53;98564.16;;;11.08;84.85
13312;BME280;34033;48.672;9.376;2022-09-19T00:10:19;98552.97;;;11.15;84.85
13312;BME280;34033;48.672;9.376;2022-09-19T00:12:44;98564.91;;;11.05;83.77
13312;BME280;34033;48.672;9.376;2022-09-19T00:15:09;98560.13;;;11.02;83.37
13312;BME280;34033;48.672;9.376;2022-09-19T00:17:35;98567.25;;;10.96;83.45
13312;BME280;34033;48.672;9.376;2022-09-19T00:20:00;98573.59;;;10.85;82.27
13312;BME280;34033;48.672;9.376;2022-09-19T00:22:26;98573.25;;;10.98;82.58
13312;BME280;34033;48.672;9.376;2022-09-19T00:24:51;98563.72;;;11.09;82.36
13312;BME280;34033;48.672;9.376;2022-09-19T00:27:24;98576.97;;;11.19;81.37
13312;BME280;34033;48.672;9.376;2022-09-19T00:29:52;98577.81;;;11.23;81.46
13312;BME280;34033;48.672;9.376;2022-09-19T00:32:19;98575.41;;;11.22;81.05
13312;BME280;34033;48.672;9.376;2022-09-19T00:34:46;98573.41;;;11.22;81.44
13312;BME280;34033;48.672;9.376;2022-09-19T00:37:14;98577.84;;;11.27;80.22
13312;BME280;34033;48.672;9.376;2022-09-19T00:39:39;98581.44;;;11.27;80.71
13312;BME280;34033;48.672;9.376;2022-09-19T00:42:14;98582.56;;;11.19;80.54
13312;BME280;34033;48.672;9.376;2022-09-19T00:47:10;98592.59;;;11.20;80.17
13312;BME280;34033;48.672;9.376;2022-09-19T00:49:44;98589.38;;;11.18;79.25
13312;BME280;34033;48.672;9.376;2022-09-19T00:52:16;98587.34;;;11.12;79.18
13312;BME280;34033;48.672;9.376;2022-09-19T00:54:45;98598.59;;;11.19;79.25
13312;BME280;34033;48.672;9.376;2022-09-19T00:57:14;98595.38;;;11.17;78.60
13312;BME280;34033;48.672;9.376;2022-09-19T00:59:47;98596.13;;;11.14;79.42
13312;BME280;34033;48.672;9.376;2022-09-19T01:02:15;98599.34;;;11.12;78.76
13312;BME280;34033;48.672;9.376;2022-09-19T01:04:44;98604.94;;;11.16;78.13
13312;BME280;34033;48.672;9.376;2022-09-19T01:18:02;98625.72;;;11.11;78.23
13312;BME280;34033;48.672;9.376;2022-09-19T01:29:15;98625.22;;;10.99;77.67
13312;BME280;34033;48.672;9.376;2022-09-19T01:31:49;98632.78;;;10.95;77.55
13312;BME280;34033;48.672;9.376;2022-09-19T01:34:17;98643.22;;;11.01;77.40
13312;BME280;34033;48.672;9.376;2022-09-19T01:36:47;98634.53;;;11.13;77.08
13312;BME280;34033;48.672;9.376;2022-09-19T01:39:17;98626.59;;;11.22;76.80
13312;BME280;34033;48.672;9.376;2022-09-19T01:41:50;98634.66;;;11.35;76.33
13312;BME280;34033;48.672;9.376;2022-09-19T01:44:18;98633.47;;;11.36;75.91
13312;BME280;34033;48.672;9.376;2022-09-19T01:57:19;98637.47;;;11.42;74.44
13312;BME280;34033;48.672;9.376;2022-09-19T02:02:54;98643.88;;;11.42;74.33
13312;BME280;34033;48.672;9.376;2022-09-19T02:08:21;98649.41;;;11.32;73.89
13312;BME280;34033;48.672;9.376;2022-09-19T02:10:58;98652.63;;;11.34;74.07
13312;BME280;34033;48.672;9.376;2022-09-19T02:13:27;98647.47;;;11.39;73.83
13312;BME280;34033;48.672;9.376;2022-09-19T02:16:01;98645.88;;;11.38;74.04
13312;BME280;34033;48.672;9.376;2022-09-19T02:18:37;98643.44;;;11.37;73.67
13312;BME280;34033;48.672;9.376;2022-09-19T02:21:10;98651.09;;;11.40;73.65
13312;BME280;34033;48.672;9.376;2022-09-19T02:23:44;98652.69;;;11.41;73.58
13312;BME280;34033;48.672;9.376;2022-09-19T02:26:14;98653.47;;;11.41;73.90
13312;BME280;34033;48.672;9.376;2022-09-19T02:28:44;98655.44;;;11.37;73.60
13312;BME280;34033;48.672;9.376;2022-09-19T02:31:10;98651.47;;;11.38;73.96
13312;BME280;34033;48.672;9.376;2022-09-19T02:33:39;98645.06;;;11.41;74.10
13312;BME280;34033;48.672;9.376;2022-09-19T02:36:13;98646.72;;;11.46;73.52
13312;BME280;34033;48.672;9.376;2022-09-19T02:39:01;98645.84;;;11.35;73.80
13312;BME280;34033;48.672;9.376;2022-09-19T02:41:41;98657.00;;;11.27;73.85
13312;BME280;34033;48.672;9.376;2022-09-19T02:44:13;98652.13;;;11.17;74.33
13312;BME280;34033;48.672;9.376;2022-09-19T02:52:04;98656.72;;;10.88;75.56
13312;BME280;34033;48.672;9.376;2022-09-19T02:54:35;98659.06;;;10.83;75.90
13312;BME280;34033;48.672;9.376;2022-09-19T02:57:07;98655.44;;;10.79;76.13
13312;BME280;34033;48.672;9.376;2022-09-19T02:59:37;98655.00;;;10.77;76.44
13312;BME280;34033;48.672;9.376;2022-09-19T03:02:09;98650.13;;;10.63;77.10
13312;BME280;34033;48.672;9.376;2022-09-19T03:04:39;98648.81;;;10.54;77.60
13312;BME280;34033;48.672;9.376;2022-09-19T03:07:17;98645.25;;;10.57;77.71
13312;BME280;34033;48.672;9.376;2022-09-19T03:10:11;98648.44;;;10.55;77.44
13312;BME280;34033;48.672;9.376;2022-09-19T03:12:47;98649.69;;;10.61;81.07
13312;BME280;34033;48.672;9.376;2022-09-19T03:15:18;98646.81;;;10.54;78.79
13312;BME280;34033;48.672;9.376;2022-09-19T03:17:47;98646.00;;;10.50;78.40
13312;BME280;34033;48.672;9.376;2022-09-19T03:20:16;98647.94;;;10.46;78.18
13312;BME280;34033;48.672;9.376;2022-09-19T03:22:43;98654.72;;;10.45;77.92
13312;BME280;34033;48.672;9.376;2022-09-19T03:25:10;98658.00;;;10.54;77.94
13312;BME280;34033;48.672;9.376;2022-09-19T03:27:36;98652.84;;;10.56;77.19
13312;BME280;34033;48.672;9.376;2022-09-19T03:30:05;98656.88;;;10.62;77.04
13312;BME280;34033;48.672;9.376;2022-09-19T03:32:33;98664.50;;;10.65;76.98
13312;BME280;34033;48.672;9.376;2022-09-19T03:34:59;98659.69;;;10.66;76.64
13312;BME280;34033;48.672;9.376;2022-09-19T03:37:25;98656.16;;;10.69;76.44
13312;BME280;34033;48.672;9.376;2022-09-19T03:39:51;98667.78;;;10.74;76.25
13312;BME280;34033;48.672;9.376;2022-09-19T03:42:16;98667.03;;;10.81;75.66
13312;BME280;34033;48.672;9.376;2022-09-19T03:44:43;98664.66;;;10.86;75.29
13312;BME280;34033;48.672;9.376;2022-09-19T03:47:08;98666.28;;;10.87;75.01
13312;BME280;34033;48.672;9.376;2022-09-19T03:49:34;98679.09;;;10.88;75.04
13312;BME280;34033;48.672;9.376;2022-09-19T03:52:00;98679.50;;;10.91;75.00
13312;BME280;34033;48.672;9.376;2022-09-19T03:54:25;98689.16;;;10.97;74.80
13312;BME280;34033;48.672;9.376;2022-09-19T03:56:51;98689.97;;;11.01;74.53
13312;BME280;34033;48.672;9.376;2022-09-19T03:59:16;98693.59;;;11.05;74.64
13312;BME280;34033;48.672;9.376;2022-09-19T04:01:41;98691.53;;;10.98;74.86
13312;BME280;34033;48.672;9.376;2022-09-19T04:04:07;98688.78;;;11.02;74.80
13312;BME280;34033;48.672;9.376;2022-09-19T04:06:32;98687.56;;;11.03;74.82
13312;BME280;34033;48.672;9.376;2022-09-19T04:08:58;98694.84;;;11.07;74.82
13312;BME280;34033;48.672;9.376;2022-09-19T04:11:25;98694.13;;;11.21;76.50
13312;BME280;34033;48.672;9.376;2022-09-19T04:13:52;98692.16;;;11.25;75.78
13312;BME280;34033;48.672;9.376;2022-09-19T04:16:19;98680.13;;;11.21;75.37
13312;BME280;34033;48.672;9.376;2022-09-19T04:18:45;98682.78;;;11.03;74.89
13312;BME280;34033;48.672;9.376;2022-09-19T04:21:16;98679.16;;;10.96;76.06
13312;BME280;34033;48.672;9.376;2022-09-19T04:23:45;98688.75;;;10.98;75.82
13312;BME280;34033;48.672;9.376;2022-09-19T04:26:11;98700.34;;;10.97;75.60
13312;BME280;34033;48.672;9.376;2022-09-19T04:28:40;98699.91;;;10.91;75.48
13312;BME280;34033;48.672;9.376;2022-09-19T04:31:07;98709.41;;;10.86;75.60
13312;BME280;34033;48.672;9.376;2022-09-19T04:33:34;98707.84;;;10.85;75.62
13312;BME280;34033;48.672;9.376;2022-09-19T04:35:59;98714.63;;;10.84;75.83
13312;BME280;34033;48.672;9.376;2022-09-19T04:38:26;98717.50;;;10.95;76.03
13312;BME280;34033;48.672;9.376;2022-09-19T04:40:54;98728.75;;;11.02;75.56
13312;BME280;34033;48.672;9.376;2022-09-19T04:43:22;98722.38;;;11.05;75.70
13312;BME280;34033;48.672;9.376;2022-09-19T04:45:48;98724.81;;;11.10;75.55
13312;BME280;34033;48.672;9.376;2022-09-19T04:48:18;98726.88;;;11.13;75.29
13312;BME280;34033;48.672;9.376;2022-09-19T04:50:45;98723.63;;;11.08;75.60
13312;BME280;34033;48.672;9.376;2022-09-19T04:53:15;98725.56;;;11.04;75.33
13312;BME280;34033;48.672;9.376;2022-09-19T04:55:41;98714.72;;;10.95;75.77
13312;BME280;34033;48.672;9.376;2022-09-19T04:58:07;98729.78;;;10.83;76.12
13312;BME280;34033;48.672;9.376;2022-09-19T05:00:32;98730.97;;;10.82;75.87
13312;BME280;34033;48.672;9.376;2022-09-19T05:03:08;98732.94;;;10.78;75.99
13312;BME280;34033;48.672;9.376;2022-09-19T05:05:35;98748.09;;;10.77;76.26
13312;BME280;34033;48.672;9.376;2022-09-19T05:08:02;98741.78;;;10.84;76.20
13312;BME280;34033;48.672;9.376;2022-09-19T05:10:30;98737.75;;;10.81;76.23
13312;BME280;34033;48.672;9.376;2022-09-19T05:12:57;98749.34;;;10.80;76.14
13312;BME280;34033;48.672;9.376;2022-09-19T05:15:22;98754.16;;;10.86;76.00
13312;BME280;34033;48.672;9.376;2022-09-19T05:17:50;98760.19;;;10.88;75.94
13312;BME280;34033;48.672;9.376;2022-09-19T05:20:18;98756.66;;;10.95;75.49
13312;BME280;34033;48.672;9.376;2022-09-19T05:22:44;98763.09;;;10.99;75.80
13312;BME280;34033;48.672;9.376;2022-09-19T05:25:09;98760.75;;;11.05;75.50
13312;BME280;34033;48.672;9.376;2022-09-19T05:27:35;98762.38;;;11.09;75.67
13312;BME280;34033;48.672;9.376;2022-09-19T05:30:03;98766.38;;;11.08;75.54
13312;BME280;34033;48.672;9.376;2022-09-19T05:32:28;98761.53;;;11.02;75.44
13312;BME280;34033;48.672;9.376;2022-09-19T05:34:54;98768.75;;;11.06;75.44
13312;BME280;34033;48.672;9.376;2022-09-19T05:37:22;98767.94;;;11.06;75.88
13312;BME280;34033;48.672;9.376;2022-09-19T05:39:47;98774.72;;;11.05;75.69
13312;BME280;34033;48.672;9.376;2022-09-19T05:42:13;98775.91;;;11.04;75.65
13312;BME280;34033;48.672;9.376;2022-09-19T05:44:38;98781.88;;;10.99;75.88
13312;BME280;34033;48.672;9.376;2022-09-19T05:47:04;98774.31;;;11.03;75.98
13312;BME280;34033;48.672;9.376;2022-09-19T05:49:30;98787.09;;;11.04;75.93
13312;BME280;34033;48.672;9.376;2022-09-19T05:51:57;98790.25;;;10.99;75.87
13312;BME280;34033;48.672;9.376;2022-09-19T05:54:43;98781.94;;;11.06;76.04
13312;BME280;34033;48.672;9.376;2022-09-19T05:57:08;98790.06;;;11.18;76.01
13312;BME280;34033;48.672;9.376;2022-09-19T05:59:33;98796.13;;;11.27;75.64
13312;BME280;34033;48.672;9.376;2022-09-19T06:01:59;98791.41;;;11.35;75.26
13312;BME280;34033;48.672;9.376;2022-09-19T06:04:26;98793.84;;;11.43;75.22
13312;BME280;34033;48.672;9.376;2022-09-19T06:06:51;98796.66;;;11.43;75.09
13312;BME280;34033;48.672;9.376;2022-09-19T06:09:17;98797.91;;;11.49;75.11
13312;BME280;34033;48.672;9.376;2022-09-19T06:11:42;98794.72;;;11.51;74.85
13312;BME280;34033;48.672;9.376;2022-09-19T06:14:08;98802.31;;;11.50;74.33
13312;BME280;34033;48.672;9.376;2022-09-19T06:16:39;98804.75;;;11.52;74.82
13312;BME280;34033;48.672;9.376;2022-09-19T06:19:06;98809.03;;;11.39;73.73
13312;BME280;34033;48.672;9.376;2022-09-19T06:21:32;98809.03;;;11.39;73.86
13312;BME280;34033;48.672;9.376;2022-09-19T06:23:58;98804.63;;;11.41;74.82
13312;BME280;34033;48.672;9.376;2022-09-19T06:26:23;98808.22;;;11.38;74.76
13312;BME280;34033;48.672;9.376;2022-09-19T06:28:48;98812.25;;;11.41;74.68
13312;BME280;34033;48.672;9.376;2022-09-19T06:31:14;98807.38;;;11.34;74.63
13312;BME280;34033;48.672;9.376;2022-09-19T06:33:42;98813.38;;;11.33;75.12
13312;BME280;34033;48.672;9.376;2022-09-19T06:36:09;98813.78;;;11.35;75.53
13312;BME280;34033;48.672;9.376;2022-09-19T06:38:34;98814.59;;;11.35;75.31
13312;BME280;34033;48.672;9.376;2022-09-19T06:41:00;98812.63;;;11.39;75.47
13312;BME280;34033;48.672;9.376;2022-09-19T06:43:26;98813.16;;;11.55;75.49
13312;BME280;34033;48.672;9.376;2022-09-19T06:45:52;98816.69;;;11.49;73.57
13312;BME280;34033;48.672;9.376;2022-09-19T06:48:17;98821.19;;;11.60;73.44
13312;BME280;34033;48.672;9.376;2022-09-19T06:50:46;98818.31;;;11.50;72.42
13312;BME280;34033;48.672;9.376;2022-09-19T06:53:12;98821.09;;;11.46;73.06
13312;BME280;34033;48.672;9.376;2022-09-19T06:55:38;98823.63;;;11.62;73.28
13312;BME280;34033;48.672;9.376;2022-09-19T06:58:04;98821.19;;;11.60;72.76
13312;BME280;34033;48.672;9.376;2022-09-19T07:00:32;98830.84;;;11.63;72.81
13312;BME280;34033;48.672;9.376;2022-09-19T07:03:04;98833.34;;;11.75;72.43
13312;BME280;34033;48.672;9.376;2022-09-19T07:05:31;98835.81;;;11.84;72.49
13312;BME280;34033;48.672;9.376;2022-09-19T07:07:56;98840.25;;;11.92;71.97
13312;BME280;34033;48.672;9.376;2022-09-19T07:10:22;98851.13;;;12.00;72.33
13312;BME280;34033;48.672;9.376;2022-09-19T07:12:55;98848.84;;;12.20;72.29
13312;BME280;34033;48.672;9.376;2022-09-19T07:15:22;98848.84;;;12.20;70.86
13312;BME280;34033;48.672;9.376;2022-09-19T07:17:48;98859.72;;;12.29;71.51
13312;BME280;34033;48.672;9.376;2022-09-19T07:20:14;98859.31;;;12.30;71.32
13312;BME280;34033;48.672;9.376;2022-09-19T07:22:40;98864.16;;;12.33;71.23
13312;BME280;34033;48.672;9.376;2022-09-19T07:25:05;98863.72;;;12.31;71.60
13312;BME280;34033;48.672;9.376;2022-09-19T07:27:33;98857.75;;;12.36;71.52
13312;BME280;34033;48.672;9.376;2022-09-19T07:29:59;98858.53;;;12.33;70.71
13312;BME280;34033;48.672;9.376;2022-09-19T07:32:24;98870.75;;;12.04;70.99
13312;BME280;34033;48.672;9.376;2022-09-19T07:34:49;98869.59;;;12.05;71.27
13312;BME280;34033;48.672;9.376;2022-09-19T07:37:15;98870.41;;;12.09;71.43
13312;BME280;34033;48.672;9.376;2022-09-19T07:39:40;98873.63;;;12.15;71.61
13312;BME280;34033;48.672;9.376;2022-09-19T07:42:06;98880.84;;;12.12;71.19
13312;BME280;34033;48.672;9.376;2022-09-19T07:44:31;98881.72;;;12.23;70.64
13312;BME280;34033;48.672;9.376;2022-09-19T07:46:56;98884.09;;;12.21;70.76
13312;BME280;34033;48.672;9.376;2022-09-19T07:49:40;98892.13;;;12.26;70.85
13312;BME280;34033;48.672;9.376;2022-09-19T07:52:06;98893.00;;;12.37;71.79
13312;BME280;34033;48.672;9.376;2022-09-19T07:54:32;98891.00;;;12.34;71.18
13312;BME280;34033;48.672;9.376;2022-09-19T07:56:57;98888.59;;;12.33;70.80
13312;BME280;34033;48.672;9.376;2022-09-19T07:59:24;98894.63;;;12.38;70.66
13312;BME280;34033;48.672;9.376;2022-09-19T08:01:49;98901.03;;;12.42;70.93
13312;BME280;34033;48.672;9.376;2022-09-19T08:04:14;98902.66;;;12.47;70.90
13312;BME280;34033;48.672;9.376;2022-09-19T08:06:40;98906.91;;;12.20;70.44
13312;BME280;34033;48.672;9.376;2022-09-19T08:09:05;98917.81;;;12.35;70.26
13312;BME280;34033;48.672;9.376;2022-09-19T08:11:33;98917.81;;;12.35;71.00
13312;BME280;34033;48.672;9.376;2022-09-19T08:14:01;98922.66;;;12.42;71.38
13312;BME280;34033;48.672;9.376;2022-09-19T08:16:26;98915.50;;;12.51;71.33
13312;BME280;34033;48.672;9.376;2022-09-19T08:18:51;98908.38;;;12.65;71.06
13312;BME280;34033;48.672;9.376;2022-09-19T08:21:17;98918.41;;;12.62;70.05
13312;BME280;34033;48.672;9.376;2022-09-19T08:23:43;98926.38;;;12.60;69.62
13312;BME280;34033;48.672;9.376;2022-09-19T08:26:09;98924.78;;;12.59;70.31
13312;BME280;34033;48.672;9.376;2022-09-19T08:28:35;98924.78;;;12.56;70.16
13312;BME280;34033;48.672;9.376;2022-09-19T08:31:00;98923.09;;;12.47;70.06
13312;BME280;34033;48.672;9.376;2022-09-19T08:33:26;98923.16;;;12.54;70.87
13312;BME280;34033;48.672;9.376;2022-09-19T08:35:52;98926.72;;;12.44;70.43
13312;BME280;34033;48.672;9.376;2022-09-19T08:38:17;98934.41;;;12.62;71.21
13312;BME280;34033;48.672;9.376;2022-09-19T08:44:09;98935.69;;;12.75;70.00
13312;BME280;34033;48.672;9.376;2022-09-19T08:47:12;98942.13;;;12.82;69.80
13312;BME280;34033;48.672;9.376;2022-09-19T08:49:53;98934.91;;;12.78;69.53
13312;BME280;34033;48.672;9.376;2022-09-19T08:52:37;98940.94;;;12.83;69.88
13312;BME280;34033;48.672;9.376;2022-09-19T08:55:07;98934.91;;;12.81;69.98
13312;BME280;34033;48.672;9.376;2022-09-19T08:57:48;98935.28;;;12.80;70.74
13312;BME280;34033;48.672;9.376;2022-09-19T09:00:18;98948.25;;;13.06;70.38
13312;BME280;34033;48.672;9.376;2022-09-19T09:03:04;98951.50;;;13.11;70.31
13312;BME280;34033;48.672;9.376;2022-09-19T09:05:34;98951.09;;;13.13;68.79
13312;BME280;34033;48.672;9.376;2022-09-19T09:13:55;98953.50;;;13.11;67.93
13312;BME280;34033;48.672;9.376;2022-09-19T09:19:12;98953.97;;;13.30;67.68
13312;BME280;34033;48.672;9.376;2022-09-19T09:24:24;98948.78;;;13.32;66.89
13312;BME280;34033;48.672;9.376;2022-09-19T09:26:54;98941.63;;;13.49;66.93
13312;BME280;34033;48.672;9.376;2022-09-19T09:29:26;98952.88;;;13.60;66.18
13312;BME280;34033;48.672;9.376;2022-09-19T09:34:56;98957.63;;;13.42;67.61
13312;BME280;34033;48.672;9.376;2022-09-19T09:37:43;98953.63;;;13.43;68.08
13312;BME280;34033;48.672;9.376;2022-09-19T09:40:14;98957.59;;;13.34;68.40
13312;BME280;34033;48.672;9.376;2022-09-19T09:43:06;98954.44;;;13.40;68.13
13312;BME280;34033;48.672;9.376;2022-09-19T09:45:43;98949.63;;;13.44;67.92
13312;BME280;34033;48.672;9.376;2022-09-19T09:48:29;98953.63;;;13.46;68.26
13312;BME280;34033;48.672;9.376;2022-09-19T10:04:26;98955.66;;;13.49;66.35
13312;BME280;34033;48.672;9.376;2022-09-19T10:07:05;98961.69;;;13.62;65.49
13312;BME280;34033;48.672;9.376;2022-09-19T10:09:38;98954.03;;;13.45;65.57
13312;BME280;34033;48.672;9.376;2022-09-19T10:12:27;98955.72;;;13.77;65.87
13312;BME280;34033;48.672;9.376;2022-09-19T10:14:59;98962.16;;;13.92;63.46
13312;BME280;34033;48.672;9.376;2022-09-19T10:17:28;98956.50;;;14.06;63.43
13312;BME280;34033;48.672;9.376;2022-09-19T10:20:00;98956.13;;;14.11;63.01
13312;BME280;34033;48.672;9.376;2022-09-19T10:22:28;98958.53;;;13.99;63.28
13312;BME280;34033;48.672;9.376;2022-09-19T10:24:56;98957.34;;;14.03;64.14
13312;BME280;34033;48.672;9.376;2022-09-19T10:32:34;98963.34;;;14.09;64.86
13312;BME280;34033;48.672;9.376;2022-09-19T10:37:52;98956.91;;;14.61;63.49
13312;BME280;34033;48.672;9.376;2022-09-19T10:40:18;98951.25;;;14.72;63.57
13312;BME280;34033;48.672;9.376;2022-09-19T10:42:44;98954.47;;;14.81;62.63
13312;BME280;34033;48.672;9.376;2022-09-19T10:45:33;98952.88;;;14.77;62.52
13312;BME280;34033;48.672;9.376;2022-09-19T10:48:15;98945.16;;;14.91;62.80
13312;BME280;34033;48.672;9.376;2022-09-19T10:50:44;98947.03;;;15.30;62.33
13312;BME280;34033;48.672;9.376;2022-09-19T10:53:43;98942.03;;;15.62;60.28
13312;BME280;34033;48.672;9.376;2022-09-19T10:56:20;98952.34;;;15.87;59.85
13312;BME280;34033;48.672;9.376;2022-09-19T10:58:50;98952.25;;;16.01;59.53
13312;BME280;34033;48.672;9.376;2022-09-19T11:01:27;98949.28;;;16.18;59.47
13312;BME280;34033;48.672;9.376;2022-09-19T11:06:55;98947.38;;;16.05;56.55
13312;BME280;34033;48.672;9.376;2022-09-19T11:09:31;98950.00;;;15.74;57.76
13312;BME280;34033;48.672;9.376;2022-09-19T11:12:14;98947.97;;;15.78;58.75
13312;BME280;34033;48.672;9.376;2022-09-19T11:14:45;98949.88;;;15.96;58.47
13312;BME280;34033;48.672;9.376;2022-09-19T11:39:04;98949.31;;;16.59;56.32
13312;BME280;34033;48.672;9.376;2022-09-19T12:00:13;98947.97;;;14.95;59.76
13312;BME280;34033;48.672;9.376;2022-09-19T12:11:11;98928.78;;;16.11;60.97
13312;BME280;34033;48.672;9.376;2022-09-19T12:13:55;98931.69;;;16.04;61.67
13312;BME280;34033;48.672;9.376;2022-09-19T12:19:02;98918.00;;;16.02;60.82
13312;BME280;34033;48.672;9.376;2022-09-19T12:21:39;98920.31;;;16.11;60.88
13312;BME280;34033;48.672;9.376;2022-09-19T12:24:17;98920.41;;;16.00;60.29
13312;BME280;34033;48.672;9.376;2022-09-19T12:27:14;98920.50;;;15.90;59.15
13312;BME280;34033;48.672;9.376;2022-09-19T12:30:02;98908.47;;;16.30;60.72
13312;BME280;34033;48.672;9.376;2022-09-19T12:32:55;98904.78;;;16.37;59.58
13312;BME280;34033;48.672;9.376;2022-09-19T12:35:32;98906.47;;;16.31;57.11
13312;BME280;34033;48.672;9.376;2022-09-19T12:38:32;98901.75;;;16.58;57.91
13312;BME280;34033;48.672;9.376;2022-09-19T12:41:21;98902.53;;;16.62;57.76
13312;BME280;34033;48.672;9.376;2022-09-19T12:44:16;98900.31;;;16.80;57.73
13312;BME280;34033;48.672;9.376;2022-09-19T12:46:48;98897.53;;;16.77;56.90
13312;BME280;34033;48.672;9.376;2022-09-19T12:51:51;98900.81;;;16.72;56.49
13312;BME280;34033;48.672;9.376;2022-09-19T12:54:48;98902.63;;;16.89;57.97
13312;BME280;34033;48.672;9.376;2022-09-19T12:57:32;98896.50;;;16.94;57.97
13312;BME280;34033;48.672;9.376;2022-09-19T13:00:05;98896.69;;;16.80;57.86
13312;BME280;34033;48.672;9.376;2022-09-19T13:02:34;98898.13;;;16.95;57.83
13312;BME280;34033;48.672;9.376;2022-09-19T13:07:45;98887.56;;;16.99;57.56
13312;BME280;34033;48.672;9.376;2022-09-19T13:10:26;98888.91;;;16.91;56.47
13312;BME280;34033;48.672;9.376;2022-09-19T13:12:59;98895.41;;;16.84;56.82
13312;BME280;34033;48.672;9.376;2022-09-19T13:15:38;98883.53;;;17.00;56.39
13312;BME280;34033;48.672;9.376;2022-09-19T13:18:12;98888.47;;;16.92;56.22
13312;BME280;34033;48.672;9.376;2022-09-19T13:20:58;98882.66;;;16.73;55.89
13312;BME280;34033;48.672;9.376;2022-09-19T13:23:46;98882.31;;;16.67;56.17
13312;BME280;34033;48.672;9.376;2022-09-19T13:26:17;98876.81;;;16.53;56.36
13312;BME280;34033;48.672;9.376;2022-09-19T13:28:55;98880.34;;;16.64;57.00
13312;BME280;34033;48.672;9.376;2022-09-19T13:31:32;98876.06;;;16.45;56.08
13312;BME280;34033;48.672;9.376;2022-09-19T13:33:57;98889.41;;;16.41;58.35
13312;BME280;34033;48.672;9.376;2022-09-19T13:38:50;98872.97;;;16.33;58.43
13312;BME280;34033;48.672;9.376;2022-09-19T13:44:22;98891.94;;;15.88;63.94
13312;BME280;34033;48.672;9.376;2022-09-19T13:47:10;98888.09;;;15.60;64.46
13312;BME280;34033;48.672;9.376;2022-09-19T13:49:51;98884.78;;;15.72;65.31
13312;BME280;34033;48.672;9.376;2022-09-19T13:52:28;98889.44;;;15.97;66.03
13312;BME280;34033;48.672;9.376;2022-09-19T13:55:30;98884.13;;;16.43;65.27
13312;BME280;34033;48.672;9.376;2022-09-19T13:58:30;98871.34;;;16.73;64.28
13312;BME280;34033;48.672;9.376;2022-09-19T14:01:07;98878.31;;;16.64;62.95
13312;BME280;34033;48.672;9.376;2022-09-19T14:03:41;98875.53;;;16.57;63.04
13312;BME280;34033;48.672;9.376;2022-09-19T14:06:29;98881.19;;;16.57;64.21
13312;BME280;34033;48.672;9.376;2022-09-19T14:12:00;98870.28;;;16.93;63.93
13312;BME280;34033;48.672;9.376;2022-09-19T14:22:39;98880.00;;;17.49;60.71
13312;BME280;34033;48.672;9.376;2022-09-19T14:25:11;98884.38;;;17.54;61.54
13312;BME280;34033;48.672;9.376;2022-09-19T14:36:26;98881.91;;;17.02;60.70
13312;BME280;34033;48.672;9.376;2022-09-19T14:41:27;98895.88;;;16.79;61.64
13312;BME280;34033;48.672;9.376;2022-09-19T14:47:02;98884.94;;;16.47;61.77
13312;BME280;34033;48.672;9.376;2022-09-19T14:52:17;98879.19;;;16.54;61.74
13312;BME280;34033;48.672;9.376;2022-09-19T14:57:18;98873.13;;;16.93;61.07
13312;BME280;34033;48.672;9.376;2022-09-19T14:59:50;98872.38;;;17.20;61.09
13312;BME280;34033;48.672;9.376;2022-09-19T15:04:46;98886.00;;;16.98;57.95
13312;BME280;34033;48.672;9.376;2022-09-19T15:07:15;98884.38;;;16.97;59.91
13312;BME280;34033;48.672;9.376;2022-09-19T15:09:40;98895.38;;;16.88;57.24
13312;BME280;34033;48.672;9.376;2022-09-19T15:12:16;98892.84;;;16.63;57.30
13312;BME280;34033;48.672;9.376;2022-09-19T15:14:48;98891.66;;;16.60;58.62
13312;BME280;34033;48.672;9.376;2022-09-19T15:17:21;98886.00;;;16.60;58.36
13312;BME280;34033;48.672;9.376;2022-09-19T15:19:53;98888.16;;;16.46;57.04
13312;BME280;34033;48.672;9.376;2022-09-19T15:24:57;98890.59;;;16.44;59.22
13312;BME280;34033;48.672;9.376;2022-09-19T15:27:26;98888.22;;;16.42;58.25
13312;BME280;34033;48.672;9.376;2022-09-19T15:29:52;98882.69;;;16.28;59.34
13312;BME280;34033;48.672;9.376;2022-09-19T15:32:28;98876.56;;;15.96;59.17
13312;BME280;34033;48.672;9.376;2022-09-19T15:35:02;98890.44;;;15.72;60.95
13312;BME280;34033;48.672;9.376;2022-09-19T15:37:27;98888.13;;;15.57;61.96
13312;BME280;34033;48.672;9.376;2022-09-19T15:39:57;98889.00;;;15.39;63.01
13312;BME280;34033;48.672;9.376;2022-09-19T15:42:25;98890.28;;;15.31;63.27
13312;BME280;34033;48.672;9.376;2022-09-19T15:44:51;98899.63;;;15.14;64.71
13312;BME280;34033;48.672;9.376;2022-09-19T15:47:20;98908.50;;;15.06;67.40
13312;BME280;34033;48.672;9.376;2022-09-19T15:49:55;98918.22;;;14.94;68.84
13312;BME280;34033;48.672;9.376;2022-09-19T15:52:42;98917.25;;;15.29;81.49
13312;BME280;34033;48.672;9.376;2022-09-19T15:55:21;98911.00;;;15.69;75.13
13312;BME280;34033;48.672;9.376;2022-09-19T15:57:50;98911.00;;;15.69;74.96
13312;BME280;34033;48.672;9.376;2022-09-19T16:00:21;98904.59;;;15.62;73.71
13312;BME280;34033;48.672;9.376;2022-09-19T16:02:50;98893.03;;;15.42;73.27
13312;BME280;34033;48.672;9.376;2022-09-19T16:05:22;98893.09;;;15.31;73.69
13312;BME280;34033;48.672;9.376;2022-09-19T16:07:52;98897.84;;;15.45;73.37
13312;BME280;34033;48.672;9.376;2022-09-19T16:10:39;98901.81;;;15.51;72.99
13312;BME280;34033;48.672;9.376;2022-09-19T16:13:40;98892.19;;;15.49;73.44
13312;BME280;34033;48.672;9.376;2022-09-19T16:16:27;98901.06;;;15.47;73.67
13312;BME280;34033;48.672;9.376;2022-09-19T16:18:54;98898.13;;;15.68;73.71
13312;BME280;34033;48.672;9.376;2022-09-19T16:21:42;98904.31;;;16.01;72.63
13312;BME280;34033;48.672;9.376;2022-09-19T16:24:14;98907.19;;;16.38;70.94